createdAt,value
2019-05-14T00:01:44.588Z,69.26
2019-05-14T00:04:14.962Z,69.86
2019-05-14T00:06:46.226Z,70.76
2019-05-14T00:09:16.524Z,70.19
2019-05-14T00:11:47.088Z,70.10
2019-05-14T00:14:17.389Z,70.09
2019-05-14T00:16:47.684Z,69.84
2019-05-14T00:19:18.029Z,70.65
2019-05-14T00:21:51.446Z,71.18
2019-05-14T00:24:21.827Z,70.82
2019-05-14T00:26:52.207Z,70.95
2019-05-14T00:29:22.499Z,71.63
2019-05-14T00:31:52.795Z,71.25
2019-05-14T00:34:23.117Z,71.10
2019-05-14T00:36:53.407Z,71.12
2019-05-14T00:39:24.168Z,70.78
2019-05-14T00:41:54.463Z,71.01
2019-05-14T00:44:25.172Z,70.74
2019-05-14T00:46:55.867Z,70.42
2019-05-14T00:49:26.501Z,71.07
2019-05-14T00:51:56.796Z,70.49
2019-05-14T00:54:27.456Z,70.97
2019-05-14T00:56:57.822Z,71.16
2019-05-14T00:59:28.177Z,70.86
2019-05-14T01:01:58.470Z,71.36
2019-05-14T01:04:28.941Z,71.15
2019-05-14T01:07:01.570Z,71.31
2019-05-14T01:09:31.802Z,71.64
2019-05-14T01:12:02.528Z,72.25
2019-05-14T01:14:33.188Z,72.53
2019-05-14T01:17:03.480Z,73.08
2019-05-14T01:19:33.841Z,73.61
2019-05-14T01:22:04.517Z,73.66
2019-05-14T01:24:34.800Z,74.00
2019-05-14T01:27:05.429Z,75.04
2019-05-14T01:29:35.729Z,74.76
2019-05-14T01:32:06.692Z,75.93
2019-05-14T01:34:37.041Z,74.80
2019-05-14T01:37:07.324Z,74.24
2019-05-14T01:39:37.773Z,75.83
2019-05-14T01:42:08.534Z,75.96
2019-05-14T01:44:41.256Z,76.04
2019-05-14T01:47:12.751Z,76.82
2019-05-14T01:49:43.244Z,77.34
2019-05-14T01:52:13.540Z,77.09
2019-05-14T01:54:43.853Z,76.20
2019-05-14T01:57:15.480Z,76.15
2019-05-14T01:59:45.774Z,75.45
2019-05-14T02:02:16.432Z,75.00
2019-05-14T02:04:48.513Z,75.78
2019-05-14T02:07:18.874Z,75.83
2019-05-14T02:09:51.735Z,75.56
2019-05-14T02:12:22.497Z,75.34
2019-05-14T02:14:52.901Z,75.04
2019-05-14T02:17:23.193Z,75.02
2019-05-14T02:19:53.522Z,77.27
2019-05-14T02:22:23.884Z,77.46
2019-05-14T02:24:54.501Z,76.83
2019-05-14T02:27:24.801Z,77.05
2019-05-14T02:29:55.509Z,79.03
2019-05-14T02:32:29.570Z,77.71
2019-05-14T02:34:59.004Z,79.04
2019-05-14T02:37:30.199Z,77.33
2019-05-14T02:40:01.073Z,76.46
2019-05-14T02:42:31.562Z,76.93
2019-05-14T02:45:02.053Z,76.89
2019-05-14T02:47:32.644Z,77.06
2019-05-14T02:50:03.446Z,76.72
2019-05-14T02:52:33.921Z,76.71
2019-05-14T02:55:04.773Z,76.81
2019-05-14T02:57:35.198Z,76.75
2019-05-14T03:00:09.794Z,76.47
2019-05-14T03:02:40.342Z,77.42
2019-05-14T03:05:11.112Z,77.35
2019-05-14T03:07:42.349Z,77.01
2019-05-14T03:10:13.225Z,77.22
2019-05-14T03:12:43.699Z,76.83
2019-05-14T03:15:14.905Z,78.68
2019-05-14T03:17:45.432Z,78.15
2019-05-14T03:20:19.706Z,77.18
2019-05-14T03:23:01.818Z,77.39
2019-05-14T03:25:22.021Z,76.97
2019-05-14T03:27:52.445Z,77.10
2019-05-14T03:30:23.673Z,77.29
2019-05-14T03:32:54.258Z,77.79
2019-05-14T03:35:39.364Z,77.91
2019-05-14T03:38:00.156Z,78.75
2019-05-14T03:40:29.594Z,78.55
2019-05-14T03:43:00.139Z,79.15
2019-05-14T03:45:30.873Z,78.88
2019-05-14T03:48:01.708Z,78.12
2019-05-14T03:50:32.136Z,78.24
2019-05-14T03:53:02.896Z,78.81
2019-05-14T03:55:33.361Z,79.42
2019-05-14T03:58:03.881Z,80.59
2019-05-14T04:00:50.836Z,80.66
2019-05-14T04:03:22.157Z,80.24
2019-05-14T04:05:54.221Z,79.74
2019-05-14T04:08:29.325Z,80.23
2019-05-14T04:11:00.707Z,80.56
2019-05-14T04:13:33.096Z,80.54
2019-05-14T04:16:04.446Z,79.59
2019-05-14T04:18:40.182Z,79.06
2019-05-14T04:21:14.245Z,78.55
2019-05-14T04:23:51.015Z,78.71
2019-05-14T04:26:23.892Z,78.33
2019-05-14T04:29:00.197Z,78.37
2019-05-14T04:31:32.699Z,78.67
2019-05-14T04:34:04.373Z,78.48
2019-05-14T04:36:35.278Z,77.89
2019-05-14T04:39:09.555Z,78.48
2019-05-14T04:41:39.985Z,78.04
2019-05-14T04:44:10.418Z,78.16
2019-05-14T04:46:40.844Z,77.84
2019-05-14T04:49:11.329Z,78.52
2019-05-14T04:51:41.770Z,78.81
2019-05-14T04:54:13.161Z,80.40
2019-05-14T04:56:43.626Z,79.44
2019-05-14T04:59:14.086Z,79.27
2019-05-14T05:01:44.518Z,79.25
2019-05-14T05:04:15.433Z,78.54
2019-05-14T05:06:45.863Z,77.69
2019-05-14T05:09:19.787Z,77.11
2019-05-14T05:11:49.733Z,76.33
2019-05-14T05:14:23.724Z,75.33
2019-05-14T05:16:53.048Z,75.15
2019-05-14T05:19:24.551Z,75.57
2019-05-14T05:21:55.851Z,74.25
2019-05-14T05:24:28.559Z,73.95
2019-05-14T05:26:58.766Z,74.22
2019-05-14T05:29:29.905Z,74.18
2019-05-14T05:32:00.334Z,73.78
2019-05-14T05:34:30.816Z,73.50
2019-05-14T05:37:01.248Z,73.35
2019-05-14T05:39:31.675Z,73.44
2019-05-14T05:42:02.156Z,72.22
2019-05-14T05:44:32.904Z,71.90
2019-05-14T05:47:03.362Z,71.90
2019-05-14T05:49:33.845Z,72.21
2019-05-14T05:52:04.611Z,72.55
2019-05-14T05:54:35.380Z,71.80
2019-05-14T05:57:06.098Z,71.04
2019-05-14T05:59:39.179Z,70.57
2019-05-14T06:02:09.604Z,70.05
2019-05-14T06:04:40.141Z,68.98
2019-05-14T06:07:10.978Z,67.57
2019-05-14T06:09:41.401Z,66.11
2019-05-14T06:12:12.181Z,67.09
2019-05-14T06:14:42.980Z,65.78
2019-05-14T06:17:13.853Z,66.10
2019-05-14T06:19:44.510Z,65.57
2019-05-14T06:22:14.945Z,64.43
2019-05-14T06:24:48.353Z,64.07
2019-05-14T06:27:18.290Z,63.42
2019-05-14T06:29:49.131Z,63.74
2019-05-14T06:32:19.569Z,64.44
2019-05-14T06:34:50.058Z,63.97
2019-05-14T06:37:20.490Z,62.78
2019-05-14T06:39:50.916Z,62.24
2019-05-14T06:42:21.796Z,62.58
2019-05-14T06:44:52.267Z,63.71
2019-05-14T06:47:22.696Z,61.75
2019-05-14T06:49:53.653Z,61.72
2019-05-14T06:52:24.470Z,60.52
2019-05-14T06:54:54.905Z,61.13
2019-05-14T06:57:25.480Z,60.83
2019-05-14T06:59:58.743Z,61.26
2019-05-14T07:02:28.715Z,61.47
2019-05-14T07:04:59.242Z,60.71
2019-05-14T07:07:30.243Z,61.73
2019-05-14T07:10:00.847Z,61.37
2019-05-14T07:12:31.334Z,60.67
2019-05-14T07:15:02.196Z,60.51
2019-05-14T07:17:33.075Z,60.35
2019-05-14T07:20:03.551Z,60.90
2019-05-14T07:22:34.326Z,60.45
2019-05-14T07:25:05.736Z,60.31
2019-05-14T07:27:38.976Z,60.00
2019-05-14T07:30:09.529Z,59.48
2019-05-14T07:32:40.035Z,58.94
2019-05-14T07:35:10.898Z,59.00
2019-05-14T07:37:41.325Z,59.18
2019-05-14T07:40:12.316Z,58.65
2019-05-14T07:42:42.742Z,58.88
2019-05-14T07:45:13.698Z,58.70
2019-05-14T07:47:44.192Z,58.74
2019-05-14T07:50:15.105Z,58.44
2019-05-14T07:52:46.267Z,57.76
2019-05-14T07:55:18.475Z,58.13
2019-05-14T07:57:49.170Z,57.34
2019-05-14T08:00:20.205Z,57.01
2019-05-14T08:02:51.573Z,55.00
2019-05-14T08:05:22.014Z,55.50
2019-05-14T08:07:52.453Z,56.62
2019-05-14T08:10:23.045Z,55.70
2019-05-14T08:12:54.247Z,54.70
2019-05-14T08:15:25.033Z,54.10
2019-05-14T08:17:55.523Z,54.62
2019-05-14T08:20:25.958Z,55.72
2019-05-14T08:22:58.197Z,52.37
2019-05-14T08:25:29.008Z,51.76
2019-05-14T08:27:59.547Z,52.27
2019-05-14T08:30:29.991Z,53.07
2019-05-14T08:33:00.473Z,51.73
2019-05-14T08:35:34.045Z,50.63
2019-05-14T08:38:07.631Z,51.47
2019-05-14T08:40:35.258Z,50.90
2019-05-14T08:43:05.701Z,49.34
2019-05-14T08:45:36.130Z,49.27
2019-05-14T08:48:09.165Z,48.62
2019-05-14T08:50:39.272Z,49.11
2019-05-14T08:53:09.981Z,49.63
2019-05-14T08:55:40.760Z,50.49
2019-05-14T08:58:13.915Z,49.31
2019-05-14T09:00:43.326Z,49.02
2019-05-14T09:03:13.805Z,46.79
2019-05-14T09:05:44.285Z,45.63
2019-05-14T09:08:14.718Z,47.25
2019-05-14T09:10:45.212Z,46.40
2019-05-14T09:13:18.195Z,47.87
2019-05-14T09:15:48.920Z,46.08
2019-05-14T09:18:19.661Z,46.74
2019-05-14T09:20:50.089Z,46.60
2019-05-14T09:23:20.522Z,47.06
2019-05-14T09:25:53.402Z,48.48
2019-05-14T09:28:23.305Z,45.74
2019-05-14T09:30:54.707Z,45.14
2019-05-14T09:33:26.035Z,44.46
2019-05-14T09:36:13.738Z,43.79
2019-05-14T09:38:29.447Z,43.80
2019-05-14T09:41:10.610Z,43.27
2019-05-14T09:43:32.994Z,43.84
2019-05-14T09:46:03.438Z,44.23
2019-05-14T09:48:33.873Z,44.28
2019-05-14T09:51:04.449Z,44.32
2019-05-14T09:53:34.885Z,44.36
2019-05-14T09:56:05.327Z,44.23
2019-05-14T09:58:38.512Z,45.23
2019-05-14T10:01:08.713Z,43.61
2019-05-14T10:03:39.721Z,43.26
2019-05-14T10:06:10.210Z,43.74
2019-05-14T10:08:40.859Z,43.35
2019-05-14T10:11:11.329Z,45.13
2019-05-14T10:13:42.084Z,44.90
2019-05-14T10:16:12.518Z,43.59
2019-05-14T10:18:43.317Z,43.72
2019-05-14T10:21:14.124Z,43.54
2019-05-14T10:23:44.856Z,41.28
2019-05-14T10:26:18.537Z,41.86
2019-05-14T10:28:48.634Z,41.20
2019-05-14T10:31:19.235Z,40.86
2019-05-14T10:33:50.049Z,40.93
2019-05-14T10:36:20.549Z,41.21
2019-05-14T10:38:50.987Z,39.80
2019-05-14T10:41:21.440Z,39.30
2019-05-14T10:43:51.943Z,39.86
2019-05-14T10:46:22.387Z,38.31
2019-05-14T10:48:53.137Z,38.41
2019-05-14T10:51:23.982Z,40.36
2019-05-14T10:53:55.538Z,40.75
2019-05-14T10:56:25.992Z,41.50
2019-05-14T10:58:58.426Z,40.40
2019-05-14T11:01:29.408Z,39.93
2019-05-14T11:04:00.184Z,39.26
2019-05-14T11:06:31.100Z,40.12
2019-05-14T11:09:01.554Z,39.76
2019-05-14T11:11:31.981Z,40.04
2019-05-14T11:14:02.495Z,40.00
2019-05-14T11:16:32.925Z,39.03
2019-05-14T11:19:03.358Z,37.13
2019-05-14T11:21:33.935Z,38.33
2019-05-14T11:24:04.482Z,38.96
2019-05-14T11:26:34.916Z,39.48
2019-05-14T11:29:05.883Z,38.64
2019-05-14T11:31:39.094Z,36.62
2019-05-14T11:34:09.166Z,39.10
2019-05-14T11:36:39.658Z,38.27
2019-05-14T11:39:10.197Z,37.96
2019-05-14T11:41:40.632Z,39.38
2019-05-14T11:44:11.126Z,40.19
2019-05-14T11:46:51.368Z,40.68
2019-05-14T11:49:14.185Z,40.24
2019-05-14T11:52:00.940Z,39.20
2019-05-14T11:54:18.768Z,38.14
2019-05-14T11:56:49.409Z,35.79
2019-05-14T11:59:19.894Z,34.82
2019-05-14T12:01:50.345Z,36.53
2019-05-14T12:04:21.077Z,37.39
2019-05-14T12:06:51.572Z,37.63
2019-05-14T12:09:22.059Z,38.03
2019-05-14T12:11:52.493Z,38.51
2019-05-14T12:14:22.995Z,38.14
2019-05-14T12:16:53.445Z,37.07
2019-05-14T12:19:23.902Z,38.32
2019-05-14T12:22:06.340Z,38.13
2019-05-14T12:24:28.986Z,38.15
2019-05-14T12:26:58.813Z,37.08
2019-05-14T12:29:29.505Z,38.00
2019-05-14T12:31:59.957Z,35.42
2019-05-14T12:34:30.666Z,35.63
2019-05-14T12:37:01.119Z,33.73
2019-05-14T12:39:31.907Z,33.68
2019-05-14T12:42:02.586Z,34.77
2019-05-14T12:44:33.191Z,35.11
2019-05-14T12:47:03.642Z,36.50
2019-05-14T12:49:34.146Z,35.92
2019-05-14T12:52:19.030Z,35.53
2019-05-14T12:54:38.661Z,34.68
2019-05-14T12:57:09.796Z,35.61
2019-05-14T12:59:40.562Z,35.70
2019-05-14T13:02:11.032Z,34.46
2019-05-14T13:04:41.527Z,32.79
2019-05-14T13:07:11.959Z,34.10
2019-05-14T13:09:42.464Z,35.23
2019-05-14T13:12:13.205Z,35.23
2019-05-14T13:14:43.652Z,36.03
2019-05-14T13:17:14.129Z,35.38
2019-05-14T13:19:44.661Z,35.27
2019-05-14T13:22:19.091Z,34.79
2019-05-14T13:24:49.276Z,34.93
2019-05-14T13:27:19.519Z,34.26
2019-05-14T13:29:51.591Z,32.83
2019-05-14T13:32:22.093Z,33.05
2019-05-14T13:34:52.556Z,33.91
2019-05-14T13:37:23.761Z,33.09
2019-05-14T13:39:54.575Z,34.13
2019-05-14T13:42:25.020Z,35.26
2019-05-14T13:44:55.457Z,33.46
2019-05-14T13:47:28.628Z,34.29
2019-05-14T13:49:59.232Z,33.48
2019-05-14T13:52:30.267Z,33.13
2019-05-14T13:55:00.766Z,33.90
2019-05-14T13:57:31.584Z,33.11
2019-05-14T14:00:02.038Z,31.87
2019-05-14T14:02:32.552Z,33.50
2019-05-14T14:05:03.401Z,33.96
2019-05-14T14:07:34.241Z,34.59
2019-05-14T14:10:04.880Z,36.12
2019-05-14T14:12:35.316Z,32.51
2019-05-14T14:15:09.555Z,32.87
2019-05-14T14:17:39.620Z,32.48
2019-05-14T14:20:10.997Z,33.81
2019-05-14T14:22:41.444Z,33.14
2019-05-14T14:25:12.555Z,34.22
2019-05-14T14:27:43.005Z,34.01
2019-05-14T14:30:14.785Z,35.45
2019-05-14T14:32:45.265Z,33.19
2019-05-14T14:35:15.864Z,34.01
2019-05-14T14:37:49.188Z,33.25
2019-05-14T14:40:22.054Z,32.50
2019-05-14T14:42:51.303Z,33.58
2019-05-14T14:45:22.043Z,32.65
2019-05-14T14:47:52.981Z,33.16
2019-05-14T14:50:23.413Z,33.54
2019-05-14T14:52:54.251Z,33.97
2019-05-14T14:55:24.757Z,35.10
2019-05-14T14:57:55.782Z,34.94
2019-05-14T15:00:29.146Z,34.50
2019-05-14T15:02:59.666Z,33.88
2019-05-14T15:05:30.434Z,33.86
2019-05-14T15:08:01.147Z,33.80
2019-05-14T15:10:31.975Z,33.62
2019-05-14T15:13:02.798Z,33.24
2019-05-14T15:15:34.821Z,34.50
2019-05-14T15:18:05.686Z,33.86
2019-05-14T15:20:36.406Z,33.65
2019-05-14T15:23:09.772Z,34.85
2019-05-14T15:25:39.238Z,34.49
2019-05-14T15:28:09.716Z,35.20
2019-05-14T15:30:40.326Z,35.84
2019-05-14T15:33:10.842Z,35.51
2019-05-14T15:35:41.300Z,36.11
2019-05-14T15:38:11.753Z,35.63
2019-05-14T15:40:42.242Z,36.81
2019-05-14T15:43:13.089Z,35.58
2019-05-14T15:45:43.539Z,35.01
2019-05-14T15:48:14.804Z,34.42
2019-05-14T15:50:46.311Z,34.73
2019-05-14T15:53:19.285Z,35.11
2019-05-14T15:55:49.365Z,34.85
2019-05-14T15:58:21.229Z,35.02
2019-05-14T16:00:51.933Z,35.15
2019-05-14T16:03:22.757Z,36.90
2019-05-14T16:05:53.189Z,36.42
2019-05-14T16:08:23.642Z,35.87
2019-05-14T16:10:54.134Z,36.57
2019-05-14T16:13:24.896Z,35.43
2019-05-14T16:15:55.737Z,36.19
2019-05-14T16:18:26.406Z,35.58
2019-05-14T16:20:59.375Z,34.49
2019-05-14T16:23:29.010Z,36.33
2019-05-14T16:25:59.505Z,35.41
2019-05-14T16:28:29.959Z,36.01
2019-05-14T16:31:00.769Z,36.71
2019-05-14T16:33:31.596Z,35.58
2019-05-14T16:36:02.345Z,35.29
2019-05-14T16:38:32.796Z,35.13
2019-05-14T16:41:04.391Z,34.39
2019-05-14T16:43:34.817Z,35.03
2019-05-14T16:46:05.684Z,34.66
2019-05-14T16:48:36.168Z,35.68
2019-05-14T16:51:08.884Z,35.66
2019-05-14T16:53:39.513Z,35.48
2019-05-14T16:56:09.992Z,36.33
2019-05-14T16:58:40.438Z,36.80
2019-05-14T17:01:11.183Z,36.96
2019-05-14T17:03:41.671Z,36.78
2019-05-14T17:06:12.437Z,36.65
2019-05-14T17:08:42.908Z,37.61
2019-05-14T17:11:13.786Z,36.86
2019-05-14T17:13:44.626Z,37.69
2019-05-14T17:16:15.057Z,36.55
2019-05-14T17:18:48.432Z,36.31
2019-05-14T17:21:18.408Z,35.72
2019-05-14T17:23:49.157Z,35.94
2019-05-14T17:26:19.848Z,36.36
2019-05-14T17:28:50.328Z,35.92
2019-05-14T17:31:20.782Z,36.74
2019-05-14T17:33:51.852Z,36.58
2019-05-14T17:36:22.285Z,37.34
2019-05-14T17:38:53.094Z,37.21
2019-05-14T17:41:23.592Z,37.18
2019-05-14T17:43:55.548Z,37.56
2019-05-14T17:46:28.833Z,36.99
2019-05-14T17:49:00.445Z,37.73
2019-05-14T17:51:31.508Z,37.26
2019-05-14T17:54:02.352Z,37.71
2019-05-14T17:56:33.597Z,37.83
2019-05-14T17:59:04.334Z,38.05
2019-05-14T18:01:35.657Z,38.76
2019-05-14T18:04:08.605Z,38.38
2019-05-14T18:06:38.698Z,37.90
2019-05-14T18:09:09.258Z,38.54
2019-05-14T18:11:40.651Z,38.53
2019-05-14T18:14:11.809Z,39.36
2019-05-14T18:16:43.053Z,39.42
2019-05-14T18:19:13.533Z,39.47
2019-05-14T18:21:43.989Z,40.13
2019-05-14T18:24:15.217Z,40.43
2019-05-14T18:26:47.953Z,39.98
2019-05-14T18:29:18.937Z,40.76
2019-05-14T18:31:53.908Z,40.57
2019-05-14T18:34:22.149Z,40.94
2019-05-14T18:36:53.749Z,41.30
2019-05-14T18:39:44.532Z,41.18
2019-05-14T18:42:15.349Z,40.78
2019-05-14T18:44:49.605Z,41.08
2019-05-14T18:47:20.008Z,41.11
2019-05-14T18:49:50.615Z,41.57
2019-05-14T18:52:21.733Z,41.42
2019-05-14T18:54:52.589Z,41.40
2019-05-14T18:57:23.042Z,41.43
2019-05-14T18:59:53.474Z,41.67
2019-05-14T19:02:25.561Z,41.90
2019-05-14T19:04:57.974Z,42.18
2019-05-14T19:07:28.899Z,42.01
2019-05-14T19:09:59.432Z,42.21
2019-05-14T19:12:29.876Z,42.11
2019-05-14T19:15:01.827Z,41.77
2019-05-14T19:17:32.685Z,41.91
2019-05-14T19:20:03.118Z,42.00
2019-05-14T19:22:33.850Z,42.08
2019-05-14T19:25:04.422Z,42.02
2019-05-14T19:27:34.857Z,41.87
2019-05-14T19:30:08.228Z,42.16
2019-05-14T19:32:39.400Z,41.84
2019-05-14T19:35:10.540Z,42.30
2019-05-14T19:37:41.343Z,41.59
2019-05-14T19:40:12.688Z,41.88
2019-05-14T19:42:43.535Z,41.99
2019-05-14T19:45:14.383Z,42.33
2019-05-14T19:47:45.209Z,42.57
2019-05-14T19:50:18.591Z,42.71
2019-05-14T19:52:48.969Z,42.32
2019-05-14T19:55:19.373Z,43.19
2019-05-14T19:57:50.245Z,42.82
2019-05-14T20:00:25.273Z,42.76
2019-05-14T20:02:58.054Z,42.88
2019-05-14T20:05:28.671Z,42.80
2019-05-14T20:07:59.629Z,42.78
2019-05-14T20:10:30.124Z,42.48
2019-05-14T20:13:00.546Z,42.45
2019-05-14T20:15:31.031Z,42.46
2019-05-14T20:18:01.916Z,42.82
2019-05-14T20:20:33.414Z,43.29
2019-05-14T20:23:03.859Z,43.32
2019-05-14T20:25:34.758Z,43.04
2019-05-14T20:28:05.424Z,43.32
2019-05-14T20:30:38.636Z,43.12
2019-05-14T20:33:09.216Z,42.90
2019-05-14T20:35:39.648Z,43.02
2019-05-14T20:38:10.484Z,43.13
2019-05-14T20:40:40.996Z,42.79
2019-05-14T20:43:11.441Z,43.25
2019-05-14T20:45:41.873Z,43.25
2019-05-14T20:48:12.344Z,42.92
2019-05-14T20:50:42.788Z,43.06
2019-05-14T20:53:13.589Z,43.16
2019-05-14T20:55:44.116Z,43.17
2019-05-14T20:58:15.291Z,42.60
2019-05-14T21:00:45.720Z,43.17
2019-05-14T21:03:18.517Z,43.33
2019-05-14T21:05:49.223Z,43.14
2019-05-14T21:08:20.026Z,43.46
2019-05-14T21:10:50.884Z,43.08
2019-05-14T21:13:22.441Z,42.98
2019-05-14T21:15:53.328Z,42.70
2019-05-14T21:18:34.775Z,42.80
2019-05-14T21:20:57.307Z,42.92
2019-05-14T21:23:29.873Z,43.19
2019-05-14T21:25:59.883Z,42.92
2019-05-14T21:28:30.387Z,42.68
2019-05-14T21:31:01.011Z,42.93
2019-05-14T21:33:32.135Z,42.79
2019-05-14T21:36:02.627Z,42.81
2019-05-14T21:38:33.387Z,43.15
2019-05-14T21:41:03.807Z,43.01
2019-05-14T21:43:34.690Z,43.26
2019-05-14T21:46:05.378Z,43.42
2019-05-14T21:48:35.795Z,43.71
2019-05-14T21:51:08.550Z,43.96
2019-05-14T21:53:41.173Z,43.91
2019-05-14T21:56:10.555Z,44.00
2019-05-14T21:58:41.327Z,44.33
2019-05-14T22:01:12.827Z,44.06
2019-05-14T22:03:43.302Z,44.34
2019-05-14T22:06:13.708Z,44.77
2019-05-14T22:08:44.134Z,44.75
2019-05-14T22:11:14.606Z,44.76
2019-05-14T22:13:45.375Z,44.72
2019-05-14T22:16:16.265Z,45.10
2019-05-14T22:18:48.349Z,45.30
2019-05-14T22:21:18.896Z,45.09
2019-05-14T22:23:49.323Z,45.53
2019-05-14T22:26:19.809Z,45.76
2019-05-14T22:28:50.413Z,45.75
2019-05-14T22:31:20.833Z,45.64
2019-05-14T22:33:51.591Z,45.91
2019-05-14T22:36:22.453Z,46.43
2019-05-14T22:38:52.862Z,46.62
2019-05-14T22:41:23.599Z,46.98
2019-05-14T22:43:56.800Z,47.16
2019-05-14T22:46:26.130Z,47.31
2019-05-14T22:48:58.601Z,48.32
2019-05-14T22:51:28.747Z,48.32
2019-05-14T22:53:59.558Z,48.98
2019-05-14T22:56:30.046Z,48.86
2019-05-14T22:59:00.787Z,49.31
2019-05-14T23:01:31.475Z,49.68
2019-05-14T23:04:01.939Z,49.99
2019-05-14T23:06:33.063Z,49.82
2019-05-14T23:09:04.481Z,49.87
2019-05-14T23:11:34.949Z,50.02
2019-05-14T23:14:07.728Z,50.19
2019-05-14T23:16:41.828Z,50.11
2019-05-14T23:19:10.998Z,50.20
2019-05-14T23:21:41.420Z,50.43
2019-05-14T23:24:11.832Z,50.66
2019-05-14T23:26:42.612Z,50.82
2019-05-14T23:29:13.416Z,50.76
2019-05-14T23:31:44.000Z,50.82
2019-05-14T23:34:14.484Z,50.89
2019-05-14T23:36:44.908Z,51.03
2019-05-14T23:39:15.811Z,51.24
2019-05-14T23:41:48.597Z,51.10
2019-05-14T23:44:19.132Z,51.11
2019-05-14T23:46:49.693Z,51.49
2019-05-14T23:49:20.171Z,51.47
2019-05-14T23:51:50.599Z,51.62
2019-05-14T23:54:21.037Z,51.79
2019-05-14T23:56:51.536Z,51.73
2019-05-14T23:59:21.998Z,52.02
